Time;durP1;ratioP1;P1;durP2;ratioP2;P2;SDS_P1;SDS_P2;PMS_P1;PMS_P2;Temp;Humidity;BMP_temperature;BMP_pressure;BME280_temperature;BME280_humidity;BME280_pressure;Samples;Min_cycle;Max_cycle;Signal;HPM_P1;HPM_P2
2022/03/03 00:02:17;;;;;;;27.42;9.85;;;;;;;0.49;80.58;101442.97;5064307;28;20024;-79
2022/03/03 00:04:42;;;;;;;24.63;8.82;;;;;;;0.55;80.65;101452.59;5063768;28;20461;-82
2022/03/03 00:07:08;;;;;;;21.80;8.98;;;;;;;0.56;80.63;101459.50;5063677;28;20031;-81
2022/03/03 00:09:33;;;;;;;35.70;9.10;;;;;;;0.52;80.76;101455.00;5064023;28;20102;-83
2022/03/03 00:11:58;;;;;;;33.00;10.27;;;;;;;0.51;80.55;101454.16;5063741;28;20411;-81
2022/03/03 00:14:24;;;;;;;25.13;9.40;;;;;;;0.50;80.72;101449.81;5063408;28;20097;-81
2022/03/03 00:16:49;;;;;;;31.15;10.95;;;;;;;0.51;80.63;101456.72;5063285;28;20025;-81
2022/03/03 00:19:15;;;;;;;42.35;15.10;;;;;;;0.56;80.64;101451.81;5063711;28;20115;-80
2022/03/03 00:21:40;;;;;;;32.10;11.45;;;;;;;0.53;80.79;101444.00;5063624;28;20031;-80
2022/03/03 00:24:06;;;;;;;36.95;11.75;;;;;;;0.54;80.96;101458.53;5063392;28;20206;-80
2022/03/03 00:26:31;;;;;;;30.75;10.93;;;;;;;0.56;81.00;101457.78;5063358;28;20036;-80
2022/03/03 00:28:57;;;;;;;39.28;10.95;;;;;;;0.69;81.30;101468.63;5063138;28;20052;-79
2022/03/03 00:31:23;;;;;;;34.50;11.20;;;;;;;0.72;81.40;101472.22;5063441;28;20027;-80
2022/03/03 00:33:49;;;;;;;38.95;12.10;;;;;;;0.67;81.35;101448.09;5063415;28;20079;-80
2022/03/03 00:36:14;;;;;;;29.08;11.57;;;;;;;0.72;81.42;101456.00;5063061;28;20021;-79
2022/03/03 00:38:40;;;;;;;30.67;13.25;;;;;;;0.70;81.38;101463.59;5063350;28;20032;-80
2022/03/03 00:41:05;;;;;;;39.28;15.13;;;;;;;0.70;81.53;101467.84;5063148;28;20028;-80
2022/03/03 00:43:30;;;;;;;34.95;15.63;;;;;;;0.70;81.82;101467.84;5063146;28;20052;-80
2022/03/03 00:45:56;;;;;;;33.15;12.43;;;;;;;0.67;81.67;101468.53;5063395;28;20039;-79
2022/03/03 00:48:21;;;;;;;32.30;11.85;;;;;;;0.65;81.79;101470.16;5063462;28;20041;-81
2022/03/03 00:50:46;;;;;;;39.92;14.25;;;;;;;0.69;81.75;101472.06;5066644;28;20029;-80
2022/03/03 00:53:12;;;;;;;36.78;14.00;;;;;;;0.69;81.85;101478.84;5066861;28;20076;-81
2022/03/03 00:55:37;;;;;;;43.58;13.65;;;;;;;0.65;82.10;101461.59;5046455;28;20041;-81
2022/03/03 00:58:03;;;;;;;28.55;12.50;;;;;;;0.72;82.01;101469.66;5062967;28;20098;-78
2022/03/03 01:00:29;;;;;;;44.17;13.10;;;;;;;0.71;82.14;101472.13;5063265;28;20025;-79
2022/03/03 01:02:54;;;;;;;24.65;9.25;;;;;;;0.75;82.26;101471.50;5063049;28;20096;-80
2022/03/03 01:05:20;;;;;;;26.80;12.02;;;;;;;0.85;82.37;101468.59;5063138;28;20404;-79
2022/03/03 01:07:45;;;;;;;21.90;8.10;;;;;;;0.89;82.51;101466.19;5063111;28;20074;-80
2022/03/03 01:10:11;;;;;;;30.38;11.27;;;;;;;0.92;82.85;101471.44;5063067;28;20032;-80
2022/03/03 01:12:38;;;;;;;30.05;11.57;;;;;;;0.90;82.70;101463.69;5063063;28;20096;-81
2022/03/03 01:15:05;;;;;;;25.75;9.40;;;;;;;0.91;82.62;101452.66;5062809;28;20025;-80
2022/03/03 01:17:30;;;;;;;21.60;7.55;;;;;;;0.93;82.82;101448.50;5063081;28;20129;-80
2022/03/03 01:19:56;;;;;;;24.75;8.65;;;;;;;0.93;82.90;101461.28;5062882;28;20525;-81
2022/03/03 01:22:21;;;;;;;17.80;6.47;;;;;;;0.99;82.93;101476.91;5062897;28;20085;-82
2022/03/03 01:24:47;;;;;;;30.15;10.27;;;;;;;1.06;83.01;101484.88;5045215;28;20088;-82
2022/03/03 01:27:12;;;;;;;25.08;8.88;;;;;;;0.97;82.74;101458.09;5062970;28;20028;-82
2022/03/03 01:29:38;;;;;;;21.85;8.52;;;;;;;0.96;82.60;101474.22;5066129;28;20032;-82
2022/03/03 01:32:05;;;;;;;29.85;8.00;;;;;;;0.88;82.43;101475.50;5066763;28;20415;-82
2022/03/03 01:34:30;;;;;;;15.20;6.05;;;;;;;0.80;82.55;101475.13;5066781;28;20021;-83
2022/03/03 01:36:56;;;;;;;15.65;5.03;;;;;;;0.79;82.82;101460.63;5066981;28;20060;-86
2022/03/03 01:39:21;;;;;;;12.55;5.07;;;;;;;0.89;83.06;101467.06;5066693;28;20017;-82
2022/03/03 01:41:47;;;;;;;11.93;3.88;;;;;;;0.95;83.10;101463.91;5066771;28;20025;-83
2022/03/03 01:44:13;;;;;;;16.52;4.32;;;;;;;1.06;82.83;101472.09;5066337;28;20025;-83
2022/03/03 01:46:49;;;;;;;11.40;3.30;;;;;;;1.08;82.67;101465.38;5066408;28;20036;-82
2022/03/03 01:49:14;;;;;;;12.10;3.65;;;;;;;1.14;82.63;101475.91;5066451;28;20021;-82
2022/03/03 01:51:40;;;;;;;7.57;3.10;;;;;;;1.18;82.41;101477.78;5048995;28;20088;-82
2022/03/03 01:54:05;;;;;;;5.93;2.78;;;;;;;1.20;82.05;101475.31;5049430;28;20035;-82
2022/03/03 01:56:30;;;;;;;8.43;3.25;;;;;;;1.19;81.96;101460.78;5066612;28;20017;-81
2022/03/03 01:58:56;;;;;;;15.30;2.85;;;;;;;1.16;81.76;101469.19;5065937;28;20381;-82
2022/03/03 02:01:21;;;;;;;9.10;2.83;;;;;;;1.11;81.47;101474.09;5066174;28;20083;-81
2022/03/03 02:03:46;;;;;;;7.43;3.17;;;;;;;0.97;81.52;101467.44;5066014;28;20044;-81
2022/03/03 02:06:12;;;;;;;10.85;2.75;;;;;;;0.92;81.40;101467.22;5065867;28;20088;-81
2022/03/03 02:08:37;;;;;;;8.75;2.70;;;;;;;0.89;81.24;101479.84;5066028;28;20045;-81
2022/03/03 02:11:03;;;;;;;5.28;2.10;;;;;;;0.83;81.17;101465.06;5065893;28;20028;-83
2022/03/03 02:13:28;;;;;;;5.25;2.55;;;;;;;0.80;81.31;101464.91;5065687;28;20272;-81
2022/03/03 02:15:56;;;;;;;7.82;2.38;;;;;;;0.79;81.27;101468.28;5065734;28;20024;-81
2022/03/03 02:18:22;;;;;;;10.23;1.63;;;;;;;0.77;81.20;101476.69;5065903;28;20029;-81
2022/03/03 02:20:48;;;;;;;7.85;2.90;;;;;;;0.82;81.12;101482.88;5065737;28;20415;-80
2022/03/03 02:23:14;;;;;;;7.50;2.67;;;;;;;0.82;80.93;101476.09;5065701;28;20017;-80
2022/03/03 02:25:39;;;;;;;9.55;2.10;;;;;;;0.80;80.88;101464.06;5065640;28;20079;-82
2022/03/03 02:28:05;;;;;;;3.50;1.35;;;;;;;0.74;80.84;101454.41;5047347;28;20488;-79
2022/03/03 02:30:30;;;;;;;8.25;2.00;;;;;;;0.74;80.61;101470.63;5065595;28;20024;-80
2022/03/03 02:32:56;;;;;;;2.90;1.27;;;;;;;0.76;80.67;101473.25;5065599;28;20047;-79
2022/03/03 02:35:21;;;;;;;4.95;2.00;;;;;;;0.77;80.33;101476.69;5065258;28;20021;-78
2022/03/03 02:37:47;;;;;;;5.00;1.65;;;;;;;0.76;80.16;101472.38;5065135;28;20041;-79
2022/03/03 02:40:20;;;;;;;9.68;2.00;;;;;;;0.71;79.99;101464.47;5065344;28;20090;-78
2022/03/03 02:42:54;;;;;;;3.60;1.50;;;;;;;0.74;79.80;101472.28;5065386;28;20098;-78
2022/03/03 02:45:20;;;;;;;8.27;2.60;;;;;;;0.73;79.68;101470.53;5065072;28;20029;-78
2022/03/03 02:47:47;;;;;;;3.95;2.05;;;;;;;0.67;79.49;101458.31;5065094;28;20115;-77
2022/03/03 02:50:15;;;;;;;4.40;1.75;;;;;;;0.71;79.29;101461.91;5065237;28;20040;-78
2022/03/03 02:52:40;;;;;;;6.35;2.13;;;;;;;0.67;78.88;101460.03;5065153;28;20013;-78
2022/03/03 02:55:07;;;;;;;4.43;1.80;;;;;;;0.69;78.91;101466.06;5065211;28;20076;-78
2022/03/03 03:00:17;;;;;;;3.78;1.20;;;;;;;0.61;78.63;101465.69;5065019;28;20040;-77
2022/03/03 03:02:42;;;;;;;5.25;1.77;;;;;;;0.59;78.50;101467.31;5064943;28;20033;-78
2022/03/03 03:05:08;;;;;;;3.60;2.17;;;;;;;0.55;78.29;101470.50;5065010;28;20017;-77
2022/03/03 03:07:34;;;;;;;10.43;1.70;;;;;;;0.55;78.35;101473.94;5064862;28;20029;-76
2022/03/03 03:09:59;;;;;;;6.38;1.70;;;;;;;0.50;77.98;101452.38;5064762;28;20025;-77
2022/03/03 03:12:25;;;;;;;3.13;1.10;;;;;;;0.51;78.08;101453.25;5064726;28;20451;-77
2022/03/03 03:14:50;;;;;;;5.55;1.50;;;;;;;0.48;77.86;101461.63;5064577;28;20051;-77
2022/03/03 03:17:15;;;;;;;4.25;1.17;;;;;;;0.45;77.62;101457.25;5064450;28;20032;-77
2022/03/03 03:19:41;;;;;;;2.67;1.30;;;;;;;0.50;77.38;101460.03;5064545;28;20033;-77
2022/03/03 03:22:06;;;;;;;4.35;1.55;;;;;;;0.46;77.15;101464.13;5064589;28;20088;-76
2022/03/03 03:24:32;;;;;;;8.60;2.08;;;;;;;0.42;76.98;101448.56;5064592;28;20084;-75
2022/03/03 03:26:57;;;;;;;5.20;1.83;;;;;;;0.39;76.98;101450.97;5064196;28;20092;-76
2022/03/03 03:29:22;;;;;;;7.15;1.88;;;;;;;0.38;76.69;101457.75;5064041;28;20029;-76
2022/03/03 03:31:48;;;;;;;4.80;1.63;;;;;;;0.41;76.69;101464.69;5064432;28;20025;-77
2022/03/03 03:34:13;;;;;;;4.38;1.40;;;;;;;0.40;76.54;101474.03;5064331;28;20064;-79
2022/03/03 03:36:39;;;;;;;3.03;1.55;;;;;;;0.30;76.24;101467.59;5064011;28;20045;-76
2022/03/03 03:39:04;;;;;;;4.03;1.75;;;;;;;0.32;76.35;101465.97;5046334;28;20025;-77
2022/03/03 03:41:30;;;;;;;5.80;1.65;;;;;;;0.29;76.33;101464.97;5064334;28;20422;-76
2022/03/03 03:43:55;;;;;;;2.92;1.50;;;;;;;0.29;76.22;101464.97;5063872;28;20082;-76
2022/03/03 03:46:21;;;;;;;5.38;2.08;;;;;;;0.26;76.25;101464.81;5064152;28;20028;-76
2022/03/03 03:48:46;;;;;;;1.52;0.90;;;;;;;0.23;76.20;101455.28;5064071;28;20032;-75
2022/03/03 03:51:11;;;;;;;5.00;1.70;;;;;;;0.21;76.28;101462.00;5063611;28;20024;-76
2022/03/03 03:53:37;;;;;;;6.53;1.65;;;;;;;0.19;76.20;101464.47;5064054;28;20024;-76
2022/03/03 03:56:02;;;;;;;1.30;1.20;;;;;;;0.19;76.09;101468.72;5063864;28;20021;-75
2022/03/03 03:58:28;;;;;;;6.32;1.88;;;;;;;0.18;75.96;101465.28;5045722;28;20056;-75
2022/03/03 04:00:53;;;;;;;4.88;1.25;;;;;;;0.17;75.82;101467.75;5045959;28;20032;-75
2022/03/03 04:03:18;;;;;;;5.38;1.50;;;;;;;0.19;75.77;101469.56;5045875;28;20029;-76
2022/03/03 04:05:44;;;;;;;3.63;1.25;;;;;;;0.20;75.76;101465.34;5063996;28;20039;-76
2022/03/03 04:08:09;;;;;;;7.22;1.63;;;;;;;0.23;75.67;101465.50;5063749;28;20056;-76
2022/03/03 04:10:35;;;;;;;5.88;1.60;;;;;;;0.24;75.35;101467.25;5063886;28;20045;-76
2022/03/03 04:13:00;;;;;;;2.85;1.65;;;;;;;0.25;75.02;101471.59;5063859;28;20028;-75
2022/03/03 04:15:26;;;;;;;3.47;1.40;;;;;;;0.28;74.90;101465.75;5063558;28;20029;-77
2022/03/03 04:17:51;;;;;;;1.23;0.90;;;;;;;0.30;74.71;101467.59;5045570;28;20108;-75
2022/03/03 04:20:18;;;;;;;2.55;1.20;;;;;;;0.32;74.48;101463.44;5063969;28;20096;-75
2022/03/03 04:22:44;;;;;;;4.30;1.98;;;;;;;0.30;74.13;101457.38;5045722;28;20023;-75
2022/03/03 04:25:13;;;;;;;3.83;1.30;;;;;;;0.39;74.04;101450.97;5045652;28;20127;-75
2022/03/03 04:27:39;;;;;;;4.90;1.40;;;;;;;0.34;73.93;101453.28;5063371;28;20384;-75
2022/03/03 04:30:06;;;;;;;6.05;1.25;;;;;;;0.39;73.82;101449.28;5063221;28;20021;-74
2022/03/03 04:32:32;;;;;;;8.05;1.58;;;;;;;0.35;73.77;101444.84;5063328;28;20021;-76
2022/03/03 04:34:57;;;;;;;2.47;0.80;;;;;;;0.33;73.70;101439.66;5045351;28;20017;-75
2022/03/03 04:37:23;;;;;;;4.05;1.42;;;;;;;0.44;73.78;101455.53;5063113;28;20404;-75
2022/03/03 04:39:48;;;;;;;5.43;1.65;;;;;;;0.41;73.41;101450.25;5063329;28;20384;-76
2022/03/03 04:42:13;;;;;;;7.43;1.50;;;;;;;0.44;73.46;101449.53;5063403;28;20492;-76
2022/03/03 04:44:39;;;;;;;2.53;1.42;;;;;;;0.47;73.54;101460.78;5062865;28;20388;-76
2022/03/03 04:47:04;;;;;;;3.65;1.30;;;;;;;0.49;73.37;101464.31;5063169;28;20017;-76
2022/03/03 04:49:29;;;;;;;3.17;1.25;;;;;;;0.49;73.23;101469.41;5045438;28;20413;-75
2022/03/03 04:51:55;;;;;;;2.60;1.27;;;;;;;0.49;73.14;101459.19;5063267;28;20021;-77
2022/03/03 04:54:20;;;;;;;1.88;0.70;;;;;;;0.51;73.00;101453.25;5063288;28;20028;-76
2022/03/03 04:56:46;;;;;;;2.20;1.38;;;;;;;0.58;72.77;101458.75;5063275;28;20036;-75
2022/03/03 04:59:12;;;;;;;4.53;1.48;;;;;;;0.58;72.19;101455.31;5062947;28;20025;-75
2022/03/03 05:01:37;;;;;;;7.38;1.55;;;;;;;0.61;72.46;101464.00;5045288;28;20024;-75
2022/03/03 05:04:03;;;;;;;4.65;1.30;;;;;;;0.57;72.49;101453.56;5065910;28;20477;-75
2022/03/03 05:06:28;;;;;;;5.18;1.30;;;;;;;0.56;72.40;101455.25;5067176;28;20027;-75
2022/03/03 05:08:54;;;;;;;5.05;2.45;;;;;;;0.62;72.17;101459.78;5067254;28;20025;-75
2022/03/03 05:11:19;;;;;;;4.03;1.25;;;;;;;0.60;72.09;101463.94;5067469;28;20040;-75
2022/03/03 05:13:46;;;;;;;3.28;1.38;;;;;;;0.58;72.08;101452.75;5066830;28;20028;-75
2022/03/03 05:16:11;;;;;;;2.40;1.15;;;;;;;0.55;71.90;101462.81;5066932;28;20033;-75
2022/03/03 05:18:38;;;;;;;6.50;1.50;;;;;;;0.51;71.90;101461.81;5066895;28;20428;-75
2022/03/03 05:21:03;;;;;;;5.57;1.23;;;;;;;0.49;71.76;101458.31;5066701;28;20071;-75
2022/03/03 05:23:29;;;;;;;3.40;1.30;;;;;;;0.46;72.01;101453.91;5066781;28;20392;-75
2022/03/03 05:25:54;;;;;;;4.70;1.65;;;;;;;0.39;71.70;101446.72;5048568;28;20021;-75
2022/03/03 05:28:20;;;;;;;6.57;1.33;;;;;;;0.43;71.98;101455.44;5066267;28;20088;-73
2022/03/03 05:30:45;;;;;;;4.53;1.30;;;;;;;0.41;72.02;101450.25;5066493;28;20021;-74
2022/03/03 05:33:10;;;;;;;2.67;1.38;;;;;;;0.35;71.66;101439.72;5066537;28;20017;-73
2022/03/03 05:35:37;;;;;;;4.20;1.65;;;;;;;0.37;71.70;101443.22;5066575;28;20133;-74
2022/03/03 05:38:03;;;;;;;5.30;1.52;;;;;;;0.32;71.63;101449.78;5048336;28;20122;-74
2022/03/03 05:40:30;;;;;;;2.88;1.65;;;;;;;0.25;71.78;101440.94;5066377;28;20028;-74
2022/03/03 05:42:56;;;;;;;4.93;1.58;;;;;;;0.27;71.69;101446.13;5066441;28;20021;-74
2022/03/03 05:45:21;;;;;;;2.55;1.38;;;;;;;0.24;71.74;101441.72;5066188;28;20029;-76
2022/03/03 05:47:46;;;;;;;2.90;1.48;;;;;;;0.21;71.70;101442.44;5066239;28;20033;-75
2022/03/03 05:50:12;;;;;;;4.70;1.08;;;;;;;0.20;71.86;101433.03;5066112;28;20028;-75
2022/03/03 05:52:37;;;;;;;4.38;1.85;;;;;;;0.21;71.73;101431.34;5066290;28;20028;-76
2022/03/03 05:55:04;;;;;;;4.15;1.25;;;;;;;0.19;71.87;101436.38;5066378;28;20064;-75
2022/03/03 05:57:36;;;;;;;4.20;1.35;;;;;;;0.18;71.67;101447.41;5066034;28;20047;-78
2022/03/03 06:00:08;;;;;;;2.80;1.52;;;;;;;0.22;71.47;101443.34;5065938;28;20033;-76
2022/03/03 06:02:33;;;;;;;;;;;;;;;0.24;71.63;101442.59;5066350;28;20082;-76
2022/03/03 06:05:02;;;;;;;3.25;1.55;;;;;;;0.18;71.65;101436.28;5066048;28;19967;-74
2022/03/03 06:07:29;;;;;;;2.80;1.20;;;;;;;0.15;71.75;101436.13;5065709;28;20025;-74
2022/03/03 06:10:03;;;;;;;3.50;1.15;;;;;;;0.11;71.71;101432.56;5065991;28;20029;-76
2022/03/03 06:12:31;;;;;;;5.63;1.27;;;;;;;0.18;71.64;101454.16;5066078;28;20021;-75
2022/03/03 06:15:04;;;;;;;3.45;1.27;;;;;;;0.14;71.62;101442.94;5065251;28;20342;-75
2022/03/03 06:17:30;;;;;;;4.75;1.73;;;;;;;0.22;71.64;101459.50;5065696;28;20021;-76
2022/03/03 06:19:59;;;;;;;5.18;1.40;;;;;;;0.21;71.70;101465.44;5065962;28;20044;-75
2022/03/03 06:22:24;;;;;;;4.40;1.38;;;;;;;0.22;71.48;101466.31;5065787;28;20385;-76
2022/03/03 06:24:49;;;;;;;5.60;1.58;;;;;;;0.04;71.53;101440.69;5065639;28;20040;-76
2022/03/03 06:27:16;;;;;;;4.85;1.70;;;;;;;0.14;71.62;101471.03;5047510;28;20025;-76
2022/03/03 06:29:41;;;;;;;2.08;1.23;;;;;;;0.21;71.56;101475.66;5065256;28;20017;-75
2022/03/03 06:32:08;;;;;;;3.55;1.30;;;;;;;0.03;71.74;101441.50;5065416;28;20104;-76
2022/03/03 06:34:34;;;;;;;2.67;1.20;;;;;;;0.10;71.47;101453.78;5065670;28;20043;-76
2022/03/03 06:37:00;;;;;;;5.22;1.63;;;;;;;0.01;71.43;101431.22;5063820;28;20524;-74
2022/03/03 06:39:26;;;;;;;4.95;1.73;;;;;;;0.27;71.36;101477.66;5065473;28;20024;-74
2022/03/03 06:41:52;;;;;;;5.60;2.17;;;;;;;0.32;71.43;101480.44;5065214;28;20088;-74
2022/03/03 06:44:19;;;;;;;5.80;1.77;;;;;;;0.30;71.61;101471.81;5063374;28;20050;-74
2022/03/03 06:46:45;;;;;;;4.45;1.40;;;;;;;0.46;71.65;101484.56;5064951;28;20091;-75
2022/03/03 06:49:11;;;;;;;5.90;1.85;;;;;;;0.73;72.11;101476.53;5065208;28;20037;-74
2022/03/03 06:51:49;;;;;;;6.60;1.40;;;;;;;1.37;72.55;101476.13;5065253;28;20512;-75
2022/03/03 06:54:16;;;;;;;8.32;1.92;;;;;;;2.09;72.86;101477.63;5047079;28;20013;-74
2022/03/03 06:56:48;;;;;;;4.88;1.40;;;;;;;2.83;72.50;101490.94;5063495;28;20032;-74
2022/03/03 06:59:15;;;;;;;;;;;;;;;3.35;72.55;101486.16;5065439;28;20029;-74
2022/03/03 07:01:42;;;;;;;5.40;1.33;;;;;;;3.71;71.29;101478.09;5064922;28;19912;-74
2022/03/03 07:04:08;;;;;;;5.97;1.40;;;;;;;3.93;69.43;101485.72;5064903;28;20461;-74
2022/03/03 07:06:34;;;;;;;8.50;1.33;;;;;;;4.20;69.17;101480.69;5046899;28;20036;-74
2022/03/03 07:09:00;;;;;;;7.82;1.50;;;;;;;4.61;69.01;101489.78;5064751;28;20025;-73
2022/03/03 07:11:29;;;;;;;5.05;1.33;;;;;;;5.15;68.94;101494.91;5064813;28;20028;-72
2022/03/03 07:13:57;;;;;;;5.18;1.08;;;;;;;5.52;66.38;101487.47;5046558;28;20059;-72
2022/03/03 07:16:36;;;;;;;4.55;1.15;;;;;;;5.72;65.36;101494.91;5064554;28;20050;-74
2022/03/03 07:19:04;;;;;;;4.00;1.50;;;;;;;5.87;63.87;101486.75;5064601;28;20048;-75
2022/03/03 07:21:37;;;;;;;7.20;2.00;;;;;;;6.34;64.34;101486.34;5064678;28;20218;-75
2022/03/03 07:24:12;;;;;;;3.70;1.65;;;;;;;6.97;63.70;101493.03;5064293;28;20035;-76
2022/03/03 07:26:39;;;;;;;5.13;1.40;;;;;;;7.46;61.61;101506.22;5063688;28;20032;-74
2022/03/03 07:29:09;;;;;;;3.05;1.65;;;;;;;7.45;60.12;101501.91;5064373;28;20025;-74
2022/03/03 07:31:46;;;;;;;7.60;1.83;;;;;;;7.46;59.84;101489.88;5046739;28;20480;-74
2022/03/03 07:34:16;;;;;;;6.20;1.55;;;;;;;7.39;58.59;101496.59;5064544;28;20032;-74
2022/03/03 07:36:44;;;;;;;5.72;1.55;;;;;;;7.38;57.66;101515.53;5046219;28;20069;-75
2022/03/03 07:39:11;;;;;;;3.88;1.60;;;;;;;7.29;57.77;101508.44;5064629;28;20017;-74
2022/03/03 07:41:37;;;;;;;10.30;1.80;;;;;;;7.25;56.47;101504.03;5064644;28;20017;-75
2022/03/03 07:44:02;;;;;;;4.18;1.40;;;;;;;7.06;57.22;101470.06;5064095;28;20022;-74
2022/03/03 07:46:28;;;;;;;5.00;1.83;;;;;;;7.42;56.93;101494.09;5064268;28;20473;-75
2022/03/03 07:48:55;;;;;;;3.78;1.30;;;;;;;7.40;54.54;101509.56;5064286;28;20049;-74
2022/03/03 07:51:22;;;;;;;4.43;1.33;;;;;;;7.05;53.84;101500.16;5046412;28;20047;-74
2022/03/03 07:53:48;;;;;;;4.03;1.33;;;;;;;6.76;54.23;101489.09;5064296;28;20150;-75
2022/03/03 07:56:37;;;;;;;5.78;1.70;;;;;;;6.86;55.11;101513.44;5063949;28;20043;-74
2022/03/03 07:59:05;;;;;;;3.90;1.70;;;;;;;6.96;54.36;101506.81;5063960;28;20028;-74
2022/03/03 08:01:32;;;;;;;6.32;2.20;;;;;;;6.98;52.35;101505.13;5063967;28;20033;-74
2022/03/03 08:04:00;;;;;;;6.00;2.35;;;;;;;6.85;53.59;101510.00;5045808;28;20083;-74
2022/03/03 08:06:26;;;;;;;4.30;1.50;;;;;;;6.97;53.21;101495.63;5063870;28;20050;-74
2022/03/03 08:08:54;;;;;;;6.80;1.80;;;;;;;7.00;51.63;101512.06;5063842;28;20092;-74
2022/03/03 08:11:22;;;;;;;3.47;1.83;;;;;;;6.77;51.36;101512.38;5046056;28;20029;-76
2022/03/03 08:13:51;;;;;;;3.25;1.25;;;;;;;6.75;52.02;101510.59;5063633;28;20025;-74
2022/03/03 08:16:17;;;;;;;2.75;1.60;;;;;;;6.65;50.93;101507.78;5063582;28;20052;-74
2022/03/03 08:18:42;;;;;;;2.65;1.23;;;;;;;6.64;51.60;101506.03;5063720;28;20021;-72
2022/03/03 08:21:09;;;;;;;3.50;1.40;;;;;;;6.73;50.69;101515.72;5045872;28;20089;-74
2022/03/03 08:23:34;;;;;;;4.68;1.20;;;;;;;7.21;50.99;101510.84;5063769;28;20021;-74
2022/03/03 08:26:00;;;;;;;4.00;1.35;;;;;;;7.77;49.46;101509.50;5063775;28;20164;-74
2022/03/03 08:28:27;;;;;;;4.05;1.83;;;;;;;7.88;47.40;101511.41;5063312;28;20150;-74
2022/03/03 08:30:59;;;;;;;4.60;1.58;;;;;;;8.09;48.04;101510.97;5045742;28;20021;-74
2022/03/03 08:33:50;;;;;;;4.15;1.70;;;;;;;8.79;47.51;101514.88;5063848;28;20101;-74
2022/03/03 08:36:21;;;;;;;4.55;1.40;;;;;;;9.27;45.72;101513.88;5063281;28;20025;-72
2022/03/03 08:38:51;;;;;;;2.80;1.20;;;;;;;9.45;45.03;101500.31;5045504;28;20028;-73
2022/03/03 08:41:19;;;;;;;5.53;1.67;;;;;;;9.53;44.77;101500.41;5045523;28;20033;-73
2022/03/03 08:43:49;;;;;;;3.50;1.10;;;;;;;9.66;44.81;101510.09;5063137;28;20033;-73
2022/03/03 08:46:19;;;;;;;6.18;1.60;;;;;;;9.79;44.10;101515.47;5063752;28;20048;-73
2022/03/03 08:48:46;;;;;;;5.85;1.30;;;;;;;9.86;44.59;101506.88;5063408;28;20017;-73
2022/03/03 08:51:14;;;;;;;6.50;2.17;;;;;;;9.98;42.41;101511.38;5063475;28;20032;-73
2022/03/03 08:53:39;;;;;;;4.78;1.30;;;;;;;9.53;42.73;101503.00;5063283;28;20028;-73
2022/03/03 08:56:05;;;;;;;3.45;1.35;;;;;;;9.23;42.98;101504.31;5063504;28;20032;-73
2022/03/03 08:58:30;;;;;;;4.07;1.10;;;;;;;8.91;43.36;101508.16;5063097;28;20051;-73
2022/03/03 09:00:55;;;;;;;5.03;1.65;;;;;;;8.89;43.93;101515.91;5063467;28;20027;-74
2022/03/03 09:03:24;;;;;;;2.22;1.17;;;;;;;8.75;43.92;101501.84;5063436;28;20326;-73
2022/03/03 09:05:50;;;;;;;2.08;1.20;;;;;;;8.59;44.16;101496.41;5063334;28;20021;-73
2022/03/03 09:08:16;;;;;;;1.75;1.02;;;;;;;8.43;43.86;101500.41;5063203;28;20021;-73
2022/03/03 09:10:41;;;;;;;3.53;1.20;;;;;;;8.36;44.86;101493.38;5063189;28;20036;-73
2022/03/03 09:13:07;;;;;;;4.72;1.30;;;;;;;8.45;45.41;101488.34;5063395;28;20021;-73
2022/03/03 09:15:33;;;;;;;4.28;1.40;;;;;;;8.70;45.36;101493.13;5062980;28;20064;-73
2022/03/03 09:17:59;;;;;;;5.72;1.60;;;;;;;8.91;44.79;101497.78;5045235;28;20051;-74
2022/03/03 09:20:25;;;;;;;6.93;1.45;;;;;;;8.84;43.98;101502.00;5063302;28;20029;-74
2022/03/03 09:22:50;;;;;;;5.35;1.42;;;;;;;8.73;44.17;101508.72;5063055;28;20175;-74
2022/03/03 09:25:15;;;;;;;4.30;1.55;;;;;;;8.47;44.35;101512.53;5045026;28;20114;-73
2022/03/03 09:27:41;;;;;;;5.07;1.38;;;;;;;8.21;44.34;101505.16;5045207;28;20077;-73
2022/03/03 09:30:08;;;;;;;1.98;1.05;;;;;;;7.98;45.47;101497.84;5044841;28;20096;-72
2022/03/03 09:32:35;;;;;;;3.72;1.13;;;;;;;7.77;45.47;101512.06;5062260;28;20119;-72
2022/03/03 09:35:00;;;;;;;4.53;1.20;;;;;;;7.76;45.94;101514.63;5062333;28;20029;-73
2022/03/03 09:37:27;;;;;;;3.50;1.55;;;;;;;7.74;46.18;101517.19;5062116;28;20067;-73
2022/03/03 09:39:52;;;;;;;3.45;1.10;;;;;;;7.73;45.72;101510.25;5044310;28;20131;-73
2022/03/03 09:42:18;;;;;;;2.83;0.93;;;;;;;7.72;45.57;101505.03;5044560;28;20039;-73
2022/03/03 09:44:43;;;;;;;3.50;1.13;;;;;;;7.68;46.01;101502.41;5060560;28;20027;-73
2022/03/03 09:47:13;;;;;;;3.03;1.05;;;;;;;7.66;46.15;101498.94;5044350;28;20017;-73
2022/03/03 09:49:39;;;;;;;3.78;1.17;;;;;;;7.71;47.02;101508.47;5046122;28;20025;-72
2022/03/03 09:52:16;;;;;;;5.28;1.35;;;;;;;7.74;46.55;101505.97;5065569;28;20460;-73
2022/03/03 09:54:48;;;;;;;2.95;1.10;;;;;;;7.56;46.08;101500.44;5066002;28;20032;-74
2022/03/03 09:57:15;;;;;;;5.60;1.20;;;;;;;7.50;46.21;101510.63;5065753;28;20048;-74
2022/03/03 09:59:41;;;;;;;3.60;1.00;;;;;;;7.43;46.64;101514.78;5065739;28;20048;-74
2022/03/03 10:02:07;;;;;;;5.00;1.33;;;;;;;7.46;47.14;101501.06;5048167;28;20465;-74
2022/03/03 10:04:33;;;;;;;3.15;1.10;;;;;;;7.77;46.86;101514.66;5048114;28;20021;-74
2022/03/03 10:07:07;;;;;;;7.78;1.38;;;;;;;7.83;46.39;101508.72;5048139;28;20021;-75
2022/03/03 10:09:59;;;;;;;2.55;1.05;;;;;;;7.93;45.08;101513.28;5066254;28;20025;-74
2022/03/03 10:12:19;;;;;;;3.65;0.85;;;;;;;7.87;46.08;101512.25;5065897;28;20048;-76
2022/03/03 10:14:48;;;;;;;4.93;1.02;;;;;;;8.07;45.14;101515.25;5065912;28;20021;-74
2022/03/03 10:17:14;;;;;;;3.33;1.20;;;;;;;8.22;44.67;101512.09;5065959;28;20461;-74
2022/03/03 10:19:57;;;;;;;3.35;1.20;;;;;;;8.54;44.20;101500.59;5066018;28;20040;-74
2022/03/03 10:22:41;;;;;;;1.90;0.88;;;;;;;8.69;43.58;101520.72;5065819;28;20084;-72
2022/03/03 10:25:09;;;;;;;1.67;1.10;;;;;;;8.74;43.20;101520.81;5065604;28;20025;-74
2022/03/03 10:27:34;;;;;;;6.20;1.05;;;;;;;8.75;43.22;101509.63;5065600;28;20017;-74
2022/03/03 10:30:02;;;;;;;4.15;1.25;;;;;;;8.72;43.03;101510.41;5047758;28;20025;-74
2022/03/03 10:32:28;;;;;;;2.17;0.95;;;;;;;8.43;43.09;101506.44;5065808;28;20369;-73
2022/03/03 10:34:53;;;;;;;3.15;1.10;;;;;;;7.91;44.04;101514.94;5065996;28;20055;-75
2022/03/03 10:37:23;;;;;;;3.55;1.10;;;;;;;7.60;45.33;101505.66;5065130;28;20064;-75
2022/03/03 10:40:00;;;;;;;6.07;1.30;;;;;;;7.53;45.62;101509.81;5065699;28;20035;-80
2022/03/03 10:42:26;;;;;;;2.97;0.90;;;;;;;7.66;45.46;101501.50;5065636;28;20025;-75
2022/03/03 10:45:05;;;;;;;10.35;1.40;;;;;;;7.80;45.32;101508.66;5065010;28;20017;-75
2022/03/03 10:47:30;;;;;;;3.85;1.48;;;;;;;8.16;44.94;101512.84;5065164;28;20050;-75
2022/03/03 10:49:59;;;;;;;3.97;1.35;;;;;;;8.49;44.06;101521.22;5065700;28;20047;-75
2022/03/03 10:52:27;;;;;;;3.75;1.42;;;;;;;9.00;44.29;101512.59;5065376;28;20044;-73
2022/03/03 10:54:59;;;;;;;2.67;1.10;;;;;;;9.78;42.64;101519.78;5065257;28;20032;-73
2022/03/03 10:57:40;;;;;;;3.50;1.73;;;;;;;10.15;41.57;101510.69;5047124;28;20021;-74
2022/03/03 11:00:15;;;;;;;3.30;1.42;;;;;;;10.21;40.76;101505.56;5064397;28;20032;-75
2022/03/03 11:02:43;;;;;;;6.50;1.10;;;;;;;10.46;40.63;101513.66;5064878;28;20033;-74
2022/03/03 11:05:11;;;;;;;6.25;1.02;;;;;;;10.72;40.02;101514.75;5047033;28;20021;-74
2022/03/03 11:07:40;;;;;;;3.17;1.08;;;;;;;11.07;39.64;101524.53;5064753;28;20021;-74
2022/03/03 11:10:10;;;;;;;3.22;0.95;;;;;;;11.22;39.21;101520.31;5065059;28;20020;-74
2022/03/03 11:12:38;;;;;;;6.15;1.30;;;;;;;11.31;38.23;101515.16;5064898;28;20362;-73
2022/03/03 11:15:04;;;;;;;4.30;1.00;;;;;;;11.43;38.63;101508.31;5064426;28;20086;-75
2022/03/03 11:17:30;;;;;;;4.75;1.20;;;;;;;11.78;38.15;101516.31;5064634;28;20063;-74
2022/03/03 11:19:59;;;;;;;3.90;1.27;;;;;;;11.97;37.03;101510.28;5064616;28;20025;-74
2022/03/03 11:22:26;;;;;;;4.03;1.15;;;;;;;12.09;37.28;101512.13;5064650;28;20028;-74
2022/03/03 11:24:55;;;;;;;2.05;1.02;;;;;;;12.43;36.47;101506.97;5064534;28;20036;-73
2022/03/03 11:27:31;;;;;;;2.67;1.30;;;;;;;12.51;35.89;101497.44;5064696;28;20025;-74
2022/03/03 11:30:17;;;;;;;2.67;1.10;;;;;;;12.50;35.67;101511.34;5046342;28;20044;-73
2022/03/03 11:32:44;;;;;;;7.93;1.20;;;;;;;12.49;36.04;101506.97;5064516;28;20024;-75
2022/03/03 11:35:12;;;;;;;1.38;0.60;;;;;;;13.04;35.45;101512.19;5064549;28;20272;-74